Alberhill, CA

6:26 AM PDT on October 25, 2014 (GMT -0700)
Corona Municipal | Change Station
CLOSE
Current Station
Airport
Location: Corona,
Elevation: 531 ft
Nearby Weather Stations

Elev 531 ft 33.90 °N, 117.60 °W | Updated 30 minutes ago

Mostly Cloudy
Mostly Cloudy
58 °F
Feels Like 58 °F
N
0
Wind Variable Wind from North

Today
High -- | Low -- °F
--% Chance of Precip.
Yesterday
High -- | Low -- °F
Precip. -- in
7:02 AM 6:04 PM
Waxing Crescent, 3% visible
Pressure 29.99 in
Visibility 10.0 miles
Clouds Few 9500 ft
Dew Point 47 °F
Humidity 67%
Rainfall 0.00 in
Snow Depth Not available.
UV 0 out of 12
Pollen 3.80 out of 12
PM2.5 Good
Flu Activity Sporadic
METAR KAJO 251256Z AUTO 00000KT 10SM FEW095 14/08 A3001 RMK AO2 T01440083 SLP155 $

More Conditions Fewer Conditions

Pressure 29.99 in
Visibility 10.0 miles
Clouds Few 9500 ft
Dew Point 47 °F
Humidity 67%
Rainfall 0.00 in
Snow Depth Not available.
UV 0 out of 12
Pollen 3.80 out of 12
PM2.5 Good
Flu Activity Sporadic
METAR KAJO 251256Z AUTO 00000KT 10SM FEW095 14/08 A3001 RMK AO2 T01440083 SLP155 $

More Conditions Fewer Conditions

10-Day Weather Forecast

Almanac

Astronomy

Oct. 25, 2014 Rise Set
Actual Time 7:02 AM PDT 6:04 PM PDT
Civil Twilight 6:37 AM PDT 6:29 PM PDT
Nautical Twilight 6:07 AM PDT 6:58 PM PDT
Astronomical Twilight 5:38 AM PDT 7:27 PM PDT
Moon 8:42 AM PDT 7:35 PM PDT
Length of Visible Light 11h 52m
Length of Day
11h 01m
Tomorrow will be 1m 54s shorter.
Waxing Crescent, 3% of the Moon is Illuminated
Today
Waxing Crescent
Oct 30
First Quarter
Nov 6
Full
Nov 14
Last Quarter
Nov 22
New

Today's Extremes

State Highs State Lows

Community

WunderPhotos

Upload Photos

1,764,829 photos uploaded!

Nearby

Air Quality

  Air Quality AQ Index Pollutant
Yesterday Good
PM10
Current Good
PM2.5
Sunday Moderate
OZONE
Sunday Good
PM10
Sunday Good
CO
Sunday Good
NO2

Snow Depth

Station Depth Elevation
Virginia Lakes Ridge 0 in 9200 ft
Leavitt Lake 1 in 9400 ft
Leavitt Meadows 1 in 7200 ft
Sonora Pass 0 in 8800 ft
Summit Meadow 1 in 9122 ft

Earthquake Activity

City Distance Mag. Time & Date
Running Springs, California 50 miles 3.1 4:07 AM PDT
2014-10-25
Maneadero, Mexico 162 miles 2.5 7:44 AM PDT
2014-10-24
Brea, California 37 miles 2.9 3:35 PM PDT
2014-10-23
Brea, California 37 miles 2.8 3:34 PM PDT
2014-10-23
Minimum magnitude displayed is 2.5.

Coastal Water Temperatures

Place Temperature
Santa Monica Pier 69.1 °F
Los Angeles, CA 69.1 °F
La Jolla, CA 70.0 °F

Nearby Weather Stations